Birmingham, AL (35242)

3:14 PM CDT on August 04, 2015 (GMT -0500)
Sunny Meadows | | Change Station
CLOSE
Current Station
Personal Weather Station
Location: Birmingham, AL
Elevation: 561 ft
Nearby Weather Stations

Elev 561 ft 33.38 °N, 86.72 °W | Updated 10 minutes ago

Partly Cloudy
Partly Cloudy
102.9 °F
Feels Like 104 °F
N
1.0
Wind Variable Wind from SSE
Gusts 3.0 mph

Today
High -- | Low -- °F
--% Chance of Precip.
Yesterday
High -- | Low -- °F
Precip. -- in
6:01 AM 7:44 PM
Waning Gibbous, 75% visible
Pressure 29.97 in
Visibility 10.0 miles
Clouds Scattered Clouds 8000 ft
Scattered Clouds 25000 ft
Heat Index 104 °F
Dew Point 60 °F
Humidity 25%
Rainfall 0.00 in
Snow Depth Not available.
UV 8 out of 12
Pollen 3.90 out of 12
Air Quality Not available.
Flu Activity Not available.
METAR KBHM 041953Z 12005KT 10SM SCT080 SCT250 37/17 A3000 RMK AO2 SLP147 T03670167

More Conditions Fewer Conditions

Pressure 29.97 in
Visibility 10.0 miles
Clouds Scattered Clouds 8000 ft
Scattered Clouds 25000 ft
Heat Index 104 °F
Dew Point 60 °F
Humidity 25%
Rainfall 0.00 in
Snow Depth Not available.
UV 8 out of 12
Pollen 3.90 out of 12
Air Quality Not available.
Flu Activity Not available.
METAR KBHM 041953Z 12005KT 10SM SCT080 SCT250 37/17 A3000 RMK AO2 SLP147 T03670167

More Conditions Fewer Conditions

10-Day Weather Forecast

×

Almanac

Astronomy

Aug. 04, 2015 Rise Set
Actual Time
Civil Twilight
Nautical Twilight
Astronomical Twilight
Moon
Length of Visible Light
Length of Day
Tomorrow will be .
, % of the Moon is Illuminated

Today's Extremes

State Highs State Lows

Community

WunderPhotos

Upload Photos

1,843,962 photos uploaded!

WunderBlogs® & News

Nearby

Air Quality

  Air Quality AQ Index Pollutant
Not available.

Snow Depth

Station Depth Elevation

Earthquake Activity

City Distance Mag. Time & Date
Minimum magnitude displayed is 2.5.

Coastal Water Temperatures

Place Temperature

Stations

Nearby Weather Stations

Station Location Temp. Windchill Dew Point Humidity Wind Precip. Elev Updated Type